This is the latest recevied weather packets stored in our database for station/object WA4TPR. If no packets are shown the sender has not sent any weather packets the latest 1 day(s).
| Time | Temp. | Humidity | Pressure | Rain* | Wind** | Luminosity | Snow |
|---|---|---|---|---|---|---|---|
| 1778086948 | 32.78° C | 52% | 1020.9 hPa | 0 mm | - | 810 W/m² | - |
| 1778086647 | 31.67° C | 53% | 1020.9 hPa | 0 mm | - | 847 W/m² | - |
| 1778086343 | 31.67° C | 53% | 1020.8 hPa | 0 mm | - | 830 W/m² | - |
| 1778081265 | 30° C | 68% | 1021.4 hPa | 0 mm | - | 684 W/m² | - |
| 1778080054 | 30° C | 71% | 1021.5 hPa | 0 mm | - | 651 W/m² | - |
| 1778079145 | 28.89° C | 74% | 1021.6 hPa | 0 mm | - | 618 W/m² | - |
| 1778077633 | 28.33° C | 78% | 1021.1 hPa | 0 mm | - | 535 W/m² | - |
| 1778077028 | 27.78° C | 81% | 1021.5 hPa | 0 mm | - | 493 W/m² | - |
| 1778076726 | 27.22° C | 82% | 1021.4 hPa | 0 mm | - | 460 W/m² | - |
| 1778075817 | 26.67° C | 84% | 1021.5 hPa | 0 mm | - | 401 W/m² | - |
| 1778075210 | 26.67° C | 86% | 1021.2 hPa | 0 mm | - | 381 W/m² | - |
| 1778074906 | 26.67° C | 86% | 1021.3 hPa | 0 mm | - | 369 W/m² | - |
| 1778074300 | 26.11° C | 88% | 1021.3 hPa | 0 mm | - | 133 W/m² | - |
| 1778073694 | 25.56° C | 89% | 1021 hPa | 0 mm | - | 302 W/m² | - |
| 1778071878 | 23.89° C | 94% | 1020.7 hPa | 0 mm | - | 87 W/m² | - |
| 1778069155 | 21.67° C | 99% | 1020.3 hPa | 0 mm | - | 86 W/m² | - |
| 1778068550 | 21.11° C | 99% | 1020.6 hPa | 0 mm | - | 70 W/m² | - |
| 1778068248 | 21.11° C | 99% | 1020.6 hPa | 0 mm | - | 65 W/m² | - |
| 1778067945 | 21.11° C | 99% | 1020.5 hPa | 0 mm | - | 53 W/m² | - |
| 1778067341 | 20.56° C | 99% | 1020.3 hPa | 0 mm | - | 43 W/m² | - |
| 1778067038 | 20.56° C | 99% | 1020.1 hPa | 0 mm | - | 38 W/m² | - |
| 1778066432 | 20° C | 99% | 1019.9 hPa | 0 mm | - | 27 W/m² | - |
| 1778066130 | 20° C | 99% | 1020 hPa | 0 mm | - | 18 W/m² | - |
| 1778064615 | 20° C | 99% | 1019.9 hPa | 0 mm | - | 4 W/m² | - |
| 1778064011 | 20° C | 99% | 1019.7 hPa | 0 mm | - | 1 W/m² | - |
* Rain latest hour (hover to see other rain measurements)
** Current wind speed in m/s (hover to see current wind gust speed)